sensor_id;sensor_type;location;lat;lon;timestamp;P1;durP1;ratioP1;P2;durP2;ratioP2
56307;SDS011;42217;50.422;7.210;2022-12-15T00:00:48;11.60;;;10.57;;
56307;SDS011;42217;50.422;7.210;2022-12-15T00:03:32;12.00;;;10.80;;
56307;SDS011;42217;50.422;7.210;2022-12-15T00:06:16;18.47;;;12.13;;
56307;SDS011;42217;50.422;7.210;2022-12-15T00:09:00;12.17;;;10.13;;
56307;SDS011;42217;50.422;7.210;2022-12-15T00:11:45;11.97;;;10.17;;
56307;SDS011;42217;50.422;7.210;2022-12-15T00:14:29;16.07;;;11.63;;
56307;SDS011;42217;50.422;7.210;2022-12-15T00:17:13;13.13;;;11.73;;
56307;SDS011;42217;50.422;7.210;2022-12-15T00:19:57;16.60;;;9.27;;
56307;SDS011;42217;50.422;7.210;2022-12-15T00:22:41;16.50;;;12.47;;
56307;SDS011;42217;50.422;7.210;2022-12-15T00:25:25;15.73;;;11.47;;
56307;SDS011;42217;50.422;7.210;2022-12-15T00:28:09;12.87;;;11.37;;
56307;SDS011;42217;50.422;7.210;2022-12-15T00:30:53;18.30;;;9.43;;
56307;SDS011;42217;50.422;7.210;2022-12-15T00:33:37;17.13;;;11.50;;
56307;SDS011;42217;50.422;7.210;2022-12-15T00:36:21;11.53;;;10.00;;
56307;SDS011;42217;50.422;7.210;2022-12-15T00:39:05;10.97;;;10.10;;
56307;SDS011;42217;50.422;7.210;2022-12-15T00:41:31;13.17;;;9.60;;
56307;SDS011;42217;50.422;7.210;2022-12-15T00:43:56;18.90;;;9.77;;
56307;SDS011;42217;50.422;7.210;2022-12-15T00:46:22;14.70;;;11.73;;
56307;SDS011;42217;50.422;7.210;2022-12-15T00:49:06;11.87;;;9.90;;
56307;SDS011;42217;50.422;7.210;2022-12-15T00:51:52;19.60;;;9.47;;
56307;SDS011;42217;50.422;7.210;2022-12-15T00:54:36;13.97;;;12.70;;
56307;SDS011;42217;50.422;7.210;2022-12-15T00:57:19;11.53;;;9.90;;
56307;SDS011;42217;50.422;7.210;2022-12-15T01:00:04;13.63;;;10.60;;
56307;SDS011;42217;50.422;7.210;2022-12-15T01:02:48;11.80;;;10.40;;
56307;SDS011;42217;50.422;7.210;2022-12-15T01:05:32;12.20;;;10.90;;
56307;SDS011;42217;50.422;7.210;2022-12-15T01:08:16;14.83;;;10.77;;
56307;SDS011;42217;50.422;7.210;2022-12-15T01:11:00;12.63;;;11.53;;
56307;SDS011;42217;50.422;7.210;2022-12-15T01:13:44;11.40;;;8.63;;
56307;SDS011;42217;50.422;7.210;2022-12-15T01:16:28;9.40;;;8.47;;
56307;SDS011;42217;50.422;7.210;2022-12-15T01:19:13;11.97;;;10.97;;
56307;SDS011;42217;50.422;7.210;2022-12-15T01:21:57;11.77;;;10.17;;
56307;SDS011;42217;50.422;7.210;2022-12-15T01:24:22;10.93;;;9.80;;
56307;SDS011;42217;50.422;7.210;2022-12-15T01:26:48;12.43;;;11.30;;
56307;SDS011;42217;50.422;7.210;2022-12-15T01:29:14;11.23;;;10.17;;
56307;SDS011;42217;50.422;7.210;2022-12-15T01:31:39;14.10;;;10.87;;
56307;SDS011;42217;50.422;7.210;2022-12-15T01:34:07;12.53;;;9.30;;
56307;SDS011;42217;50.422;7.210;2022-12-15T01:36:33;18.60;;;13.57;;
56307;SDS011;42217;50.422;7.210;2022-12-15T01:38:58;10.33;;;8.77;;
56307;SDS011;42217;50.422;7.210;2022-12-15T01:41:25;10.50;;;9.07;;
56307;SDS011;42217;50.422;7.210;2022-12-15T01:43:51;14.50;;;10.23;;
56307;SDS011;42217;50.422;7.210;2022-12-15T01:46:20;15.33;;;10.40;;
56307;SDS011;42217;50.422;7.210;2022-12-15T01:48:50;16.40;;;9.90;;
56307;SDS011;42217;50.422;7.210;2022-12-15T01:51:45;22.63;;;11.20;;
56307;SDS011;42217;50.422;7.210;2022-12-15T01:54:16;11.13;;;9.97;;
56307;SDS011;42217;50.422;7.210;2022-12-15T01:56:46;11.20;;;10.00;;
56307;SDS011;42217;50.422;7.210;2022-12-15T01:59:17;12.67;;;11.50;;
56307;SDS011;42217;50.422;7.210;2022-12-15T02:01:52;14.50;;;9.00;;
56307;SDS011;42217;50.422;7.210;2022-12-15T02:04:18;16.47;;;9.33;;
56307;SDS011;42217;50.422;7.210;2022-12-15T02:06:46;13.50;;;11.47;;
56307;SDS011;42217;50.422;7.210;2022-12-15T02:09:13;16.27;;;12.07;;
56307;SDS011;42217;50.422;7.210;2022-12-15T02:14:09;17.17;;;10.37;;
56307;SDS011;42217;50.422;7.210;2022-12-15T02:19:38;17.40;;;10.07;;
56307;SDS011;42217;50.422;7.210;2022-12-15T02:31:11;7.00;;;6.43;;
56307;SDS011;42217;50.422;7.210;2022-12-15T02:34:19;10.00;;;8.77;;
56307;SDS011;42217;50.422;7.210;2022-12-15T02:37:05;8.63;;;7.97;;
56307;SDS011;42217;50.422;7.210;2022-12-15T02:39:43;11.77;;;9.50;;
56307;SDS011;42217;50.422;7.210;2022-12-15T02:42:09;11.63;;;10.27;;
56307;SDS011;42217;50.422;7.210;2022-12-15T02:44:37;13.03;;;10.43;;
56307;SDS011;42217;50.422;7.210;2022-12-15T03:00:45;10.23;;;9.23;;
56307;SDS011;42217;50.422;7.210;2022-12-15T03:03:22;11.90;;;8.47;;
56307;SDS011;42217;50.422;7.210;2022-12-15T03:05:49;11.10;;;10.07;;
56307;SDS011;42217;50.422;7.210;2022-12-15T03:08:19;12.53;;;11.20;;
56307;SDS011;42217;50.422;7.210;2022-12-15T03:10:46;10.00;;;9.30;;
56307;SDS011;42217;50.422;7.210;2022-12-15T03:13:13;10.33;;;9.37;;
56307;SDS011;42217;50.422;7.210;2022-12-15T03:15:39;11.57;;;9.60;;
56307;SDS011;42217;50.422;7.210;2022-12-15T03:18:05;9.73;;;8.77;;
56307;SDS011;42217;50.422;7.210;2022-12-15T03:20:30;13.57;;;12.20;;
56307;SDS011;42217;50.422;7.210;2022-12-15T03:22:56;11.80;;;9.60;;
56307;SDS011;42217;50.422;7.210;2022-12-15T03:25:22;12.57;;;9.27;;
56307;SDS011;42217;50.422;7.210;2022-12-15T03:27:47;11.27;;;7.57;;
56307;SDS011;42217;50.422;7.210;2022-12-15T03:30:13;12.07;;;10.80;;
56307;SDS011;42217;50.422;7.210;2022-12-15T03:32:39;9.57;;;8.77;;
56307;SDS011;42217;50.422;7.210;2022-12-15T03:35:05;8.80;;;8.13;;
56307;SDS011;42217;50.422;7.210;2022-12-15T03:37:31;10.80;;;9.90;;
56307;SDS011;42217;50.422;7.210;2022-12-15T03:39:57;13.80;;;12.40;;
56307;SDS011;42217;50.422;7.210;2022-12-15T03:42:22;10.63;;;9.80;;
56307;SDS011;42217;50.422;7.210;2022-12-15T03:45:06;10.20;;;9.27;;
56307;SDS011;42217;50.422;7.210;2022-12-15T03:47:32;11.77;;;10.67;;
56307;SDS011;42217;50.422;7.210;2022-12-15T03:49:58;9.93;;;9.23;;
56307;SDS011;42217;50.422;7.210;2022-12-15T03:52:24;22.33;;;11.93;;
56307;SDS011;42217;50.422;7.210;2022-12-15T03:54:50;13.40;;;12.23;;
56307;SDS011;42217;50.422;7.210;2022-12-15T03:57:15;11.57;;;10.47;;
56307;SDS011;42217;50.422;7.210;2022-12-15T03:59:41;12.90;;;8.73;;
56307;SDS011;42217;50.422;7.210;2022-12-15T04:02:08;11.03;;;10.00;;
56307;SDS011;42217;50.422;7.210;2022-12-15T04:04:36;10.90;;;9.80;;
56307;SDS011;42217;50.422;7.210;2022-12-15T04:07:01;9.17;;;8.27;;
56307;SDS011;42217;50.422;7.210;2022-12-15T04:09:27;10.57;;;7.90;;
56307;SDS011;42217;50.422;7.210;2022-12-15T04:11:53;8.73;;;8.03;;
56307;SDS011;42217;50.422;7.210;2022-12-15T04:14:18;8.83;;;8.20;;
56307;SDS011;42217;50.422;7.210;2022-12-15T04:16:44;10.27;;;9.20;;
56307;SDS011;42217;50.422;7.210;2022-12-15T04:19:10;9.40;;;8.43;;
56307;SDS011;42217;50.422;7.210;2022-12-15T04:21:54;17.27;;;11.67;;
56307;SDS011;42217;50.422;7.210;2022-12-15T04:24:20;12.33;;;11.07;;
56307;SDS011;42217;50.422;7.210;2022-12-15T04:27:04;12.07;;;11.10;;
56307;SDS011;42217;50.422;7.210;2022-12-15T04:29:48;7.47;;;7.07;;
56307;SDS011;42217;50.422;7.210;2022-12-15T04:32:32;8.97;;;8.33;;
56307;SDS011;42217;50.422;7.210;2022-12-15T04:35:16;10.53;;;9.57;;
56307;SDS011;42217;50.422;7.210;2022-12-15T04:38:01;37.10;;;15.07;;
56307;SDS011;42217;50.422;7.210;2022-12-15T04:40:45;8.17;;;7.07;;
56307;SDS011;42217;50.422;7.210;2022-12-15T04:43:29;21.47;;;11.50;;
56307;SDS011;42217;50.422;7.210;2022-12-15T04:46:14;11.37;;;10.20;;
56307;SDS011;42217;50.422;7.210;2022-12-15T04:48:58;11.57;;;9.03;;
56307;SDS011;42217;50.422;7.210;2022-12-15T04:51:42;8.07;;;7.33;;
56307;SDS011;42217;50.422;7.210;2022-12-15T04:54:26;17.07;;;11.03;;
56307;SDS011;42217;50.422;7.210;2022-12-15T04:57:10;17.17;;;11.67;;
56307;SDS011;42217;50.422;7.210;2022-12-15T04:59:54;9.77;;;9.17;;
56307;SDS011;42217;50.422;7.210;2022-12-15T05:02:38;15.30;;;10.03;;
56307;SDS011;42217;50.422;7.210;2022-12-15T05:05:22;11.10;;;10.00;;
56307;SDS011;42217;50.422;7.210;2022-12-15T05:08:06;19.73;;;13.70;;
56307;SDS011;42217;50.422;7.210;2022-12-15T05:10:50;12.13;;;9.57;;
56307;SDS011;42217;50.422;7.210;2022-12-15T05:13:34;15.93;;;9.40;;
56307;SDS011;42217;50.422;7.210;2022-12-15T05:16:18;10.90;;;9.10;;
56307;SDS011;42217;50.422;7.210;2022-12-15T05:19:02;24.33;;;10.30;;
56307;SDS011;42217;50.422;7.210;2022-12-15T05:21:46;12.27;;;7.50;;
56307;SDS011;42217;50.422;7.210;2022-12-15T05:24:30;8.37;;;7.83;;
56307;SDS011;42217;50.422;7.210;2022-12-15T05:27:14;17.67;;;10.77;;
56307;SDS011;42217;50.422;7.210;2022-12-15T05:29:58;7.57;;;7.10;;
56307;SDS011;42217;50.422;7.210;2022-12-15T05:32:42;16.97;;;9.57;;
56307;SDS011;42217;50.422;7.210;2022-12-15T05:35:08;11.17;;;10.17;;
56307;SDS011;42217;50.422;7.210;2022-12-15T05:37:34;9.90;;;9.20;;
56307;SDS011;42217;50.422;7.210;2022-12-15T05:40:00;8.27;;;7.57;;
56307;SDS011;42217;50.422;7.210;2022-12-15T05:42:26;8.43;;;7.63;;
56307;SDS011;42217;50.422;7.210;2022-12-15T05:44:51;9.13;;;8.57;;
56307;SDS011;42217;50.422;7.210;2022-12-15T05:47:17;10.07;;;9.43;;
56307;SDS011;42217;50.422;7.210;2022-12-15T05:49:43;9.47;;;8.60;;
56307;SDS011;42217;50.422;7.210;2022-12-15T05:52:08;9.57;;;8.90;;
56307;SDS011;42217;50.422;7.210;2022-12-15T05:54:34;10.40;;;9.30;;
56307;SDS011;42217;50.422;7.210;2022-12-15T05:56:59;11.47;;;8.63;;
56307;SDS011;42217;50.422;7.210;2022-12-15T05:59:25;7.07;;;6.67;;
56307;SDS011;42217;50.422;7.210;2022-12-15T06:01:51;8.97;;;8.10;;
56307;SDS011;42217;50.422;7.210;2022-12-15T06:04:16;7.40;;;6.87;;
56307;SDS011;42217;50.422;7.210;2022-12-15T06:06:42;9.53;;;8.67;;
56307;SDS011;42217;50.422;7.210;2022-12-15T06:09:08;16.83;;;8.73;;
56307;SDS011;42217;50.422;7.210;2022-12-15T06:11:34;13.40;;;12.40;;
56307;SDS011;42217;50.422;7.210;2022-12-15T06:14:01;10.33;;;9.63;;
56307;SDS011;42217;50.422;7.210;2022-12-15T06:16:27;8.20;;;7.70;;
56307;SDS011;42217;50.422;7.210;2022-12-15T06:18:54;15.20;;;8.00;;
56307;SDS011;42217;50.422;7.210;2022-12-15T06:21:26;8.53;;;8.03;;
56307;SDS011;42217;50.422;7.210;2022-12-15T06:23:57;9.77;;;8.80;;
56307;SDS011;42217;50.422;7.210;2022-12-15T06:26:24;9.83;;;9.13;;
56307;SDS011;42217;50.422;7.210;2022-12-15T06:28:50;17.57;;;11.07;;
56307;SDS011;42217;50.422;7.210;2022-12-15T06:31:17;7.33;;;6.80;;
56307;SDS011;42217;50.422;7.210;2022-12-15T06:33:46;10.17;;;9.47;;
56307;SDS011;42217;50.422;7.210;2022-12-15T06:36:13;13.60;;;12.23;;
56307;SDS011;42217;50.422;7.210;2022-12-15T06:38:41;10.17;;;9.20;;
56307;SDS011;42217;50.422;7.210;2022-12-15T06:41:07;8.40;;;7.83;;
56307;SDS011;42217;50.422;7.210;2022-12-15T06:43:34;7.60;;;7.07;;
56307;SDS011;42217;50.422;7.210;2022-12-15T06:46:00;7.97;;;7.43;;
56307;SDS011;42217;50.422;7.210;2022-12-15T06:48:27;7.33;;;6.93;;
56307;SDS011;42217;50.422;7.210;2022-12-15T06:50:53;7.90;;;7.20;;
56307;SDS011;42217;50.422;7.210;2022-12-15T06:53:19;11.00;;;10.17;;
56307;SDS011;42217;50.422;7.210;2022-12-15T06:55:47;8.50;;;7.63;;
56307;SDS011;42217;50.422;7.210;2022-12-15T06:58:14;12.60;;;11.57;;
56307;SDS011;42217;50.422;7.210;2022-12-15T07:00:42;15.07;;;13.03;;
56307;SDS011;42217;50.422;7.210;2022-12-15T07:03:11;35.93;;;15.40;;
56307;SDS011;42217;50.422;7.210;2022-12-15T07:05:39;13.30;;;12.30;;
56307;SDS011;42217;50.422;7.210;2022-12-15T07:08:04;20.10;;;18.23;;
56307;SDS011;42217;50.422;7.210;2022-12-15T07:10:30;13.47;;;12.40;;
56307;SDS011;42217;50.422;7.210;2022-12-15T07:12:56;14.17;;;11.57;;
56307;SDS011;42217;50.422;7.210;2022-12-15T07:15:22;10.00;;;8.83;;
56307;SDS011;42217;50.422;7.210;2022-12-15T07:17:48;9.93;;;9.17;;
56307;SDS011;42217;50.422;7.210;2022-12-15T07:20:15;12.17;;;11.07;;
56307;SDS011;42217;50.422;7.210;2022-12-15T07:22:40;14.33;;;13.27;;
56307;SDS011;42217;50.422;7.210;2022-12-15T07:25:06;12.87;;;11.70;;
56307;SDS011;42217;50.422;7.210;2022-12-15T07:27:32;11.63;;;10.57;;
56307;SDS011;42217;50.422;7.210;2022-12-15T07:29:58;13.43;;;11.97;;
56307;SDS011;42217;50.422;7.210;2022-12-15T07:32:24;11.80;;;10.30;;
56307;SDS011;42217;50.422;7.210;2022-12-15T07:34:49;17.90;;;14.47;;
56307;SDS011;42217;50.422;7.210;2022-12-15T07:37:15;15.30;;;14.07;;
56307;SDS011;42217;50.422;7.210;2022-12-15T07:39:41;16.70;;;15.03;;
56307;SDS011;42217;50.422;7.210;2022-12-15T07:42:07;15.17;;;13.57;;
56307;SDS011;42217;50.422;7.210;2022-12-15T07:44:33;13.93;;;12.97;;
56307;SDS011;42217;50.422;7.210;2022-12-15T07:46:58;12.60;;;11.80;;
56307;SDS011;42217;50.422;7.210;2022-12-15T07:49:24;9.10;;;8.30;;
56307;SDS011;42217;50.422;7.210;2022-12-15T07:51:50;8.53;;;7.97;;
56307;SDS011;42217;50.422;7.210;2022-12-15T07:54:15;9.07;;;8.40;;
56307;SDS011;42217;50.422;7.210;2022-12-15T07:56:41;9.67;;;8.97;;
56307;SDS011;42217;50.422;7.210;2022-12-15T07:59:07;9.77;;;8.80;;
56307;SDS011;42217;50.422;7.210;2022-12-15T08:01:33;14.10;;;13.17;;
56307;SDS011;42217;50.422;7.210;2022-12-15T08:03:59;23.53;;;13.73;;
56307;SDS011;42217;50.422;7.210;2022-12-15T08:06:25;22.03;;;13.17;;
56307;SDS011;42217;50.422;7.210;2022-12-15T08:08:51;14.00;;;12.77;;
56307;SDS011;42217;50.422;7.210;2022-12-15T08:11:18;19.17;;;13.37;;
56307;SDS011;42217;50.422;7.210;2022-12-15T08:13:45;12.90;;;11.57;;
56307;SDS011;42217;50.422;7.210;2022-12-15T08:16:11;15.30;;;12.57;;
56307;SDS011;42217;50.422;7.210;2022-12-15T08:18:37;16.70;;;15.13;;
56307;SDS011;42217;50.422;7.210;2022-12-15T08:21:07;21.00;;;15.90;;
56307;SDS011;42217;50.422;7.210;2022-12-15T08:23:34;16.83;;;13.63;;
56307;SDS011;42217;50.422;7.210;2022-12-15T08:26:07;13.40;;;12.30;;
56307;SDS011;42217;50.422;7.210;2022-12-15T08:28:36;16.50;;;12.03;;
56307;SDS011;42217;50.422;7.210;2022-12-15T08:31:03;8.03;;;7.37;;
56307;SDS011;42217;50.422;7.210;2022-12-15T08:33:30;15.83;;;11.93;;
56307;SDS011;42217;50.422;7.210;2022-12-15T08:35:57;12.10;;;9.43;;
56307;SDS011;42217;50.422;7.210;2022-12-15T08:38:23;11.20;;;10.13;;
56307;SDS011;42217;50.422;7.210;2022-12-15T08:40:49;15.83;;;11.60;;
56307;SDS011;42217;50.422;7.210;2022-12-15T08:43:14;12.83;;;11.43;;
56307;SDS011;42217;50.422;7.210;2022-12-15T08:45:40;15.60;;;12.93;;
56307;SDS011;42217;50.422;7.210;2022-12-15T08:48:06;22.70;;;16.13;;
56307;SDS011;42217;50.422;7.210;2022-12-15T08:50:31;18.80;;;16.60;;
56307;SDS011;42217;50.422;7.210;2022-12-15T08:52:57;18.10;;;16.47;;
56307;SDS011;42217;50.422;7.210;2022-12-15T08:55:23;13.33;;;11.83;;
56307;SDS011;42217;50.422;7.210;2022-12-15T08:57:49;22.17;;;16.57;;
56307;SDS011;42217;50.422;7.210;2022-12-15T09:00:15;27.73;;;18.03;;
56307;SDS011;42217;50.422;7.210;2022-12-15T09:02:42;18.73;;;16.20;;
56307;SDS011;42217;50.422;7.210;2022-12-15T09:05:08;24.23;;;18.03;;
56307;SDS011;42217;50.422;7.210;2022-12-15T09:07:34;25.67;;;19.00;;
56307;SDS011;42217;50.422;7.210;2022-12-15T09:09:59;33.83;;;19.20;;
56307;SDS011;42217;50.422;7.210;2022-12-15T09:12:25;19.17;;;16.23;;
56307;SDS011;42217;50.422;7.210;2022-12-15T09:14:51;35.87;;;19.67;;
56307;SDS011;42217;50.422;7.210;2022-12-15T09:17:17;26.67;;;18.80;;
56307;SDS011;42217;50.422;7.210;2022-12-15T09:19:42;27.63;;;21.33;;
56307;SDS011;42217;50.422;7.210;2022-12-15T09:22:08;22.43;;;19.03;;
56307;SDS011;42217;50.422;7.210;2022-12-15T09:24:34;23.07;;;20.83;;
56307;SDS011;42217;50.422;7.210;2022-12-15T09:26:59;18.47;;;14.50;;
56307;SDS011;42217;50.422;7.210;2022-12-15T09:29:25;17.27;;;15.50;;
56307;SDS011;42217;50.422;7.210;2022-12-15T09:31:51;21.73;;;18.10;;
56307;SDS011;42217;50.422;7.210;2022-12-15T09:34:16;30.27;;;22.73;;
56307;SDS011;42217;50.422;7.210;2022-12-15T09:36:42;25.23;;;19.50;;
56307;SDS011;42217;50.422;7.210;2022-12-15T09:39:08;21.33;;;17.20;;
56307;SDS011;42217;50.422;7.210;2022-12-15T09:41:36;33.67;;;22.43;;
56307;SDS011;42217;50.422;7.210;2022-12-15T09:44:25;33.03;;;18.30;;
56307;SDS011;42217;50.422;7.210;2022-12-15T09:54:42;28.77;;;19.83;;
56307;SDS011;42217;50.422;7.210;2022-12-15T09:59:56;24.47;;;15.53;;
56307;SDS011;42217;50.422;7.210;2022-12-15T10:08:26;39.57;;;19.13;;
56307;SDS011;42217;50.422;7.210;2022-12-15T10:10:56;27.27;;;19.07;;
56307;SDS011;42217;50.422;7.210;2022-12-15T10:16:03;30.10;;;15.57;;
56307;SDS011;42217;50.422;7.210;2022-12-15T10:18:39;17.53;;;14.10;;
56307;SDS011;42217;50.422;7.210;2022-12-15T10:21:11;20.00;;;14.70;;
56307;SDS011;42217;50.422;7.210;2022-12-15T10:23:38;21.30;;;16.57;;
56307;SDS011;42217;50.422;7.210;2022-12-15T10:26:16;19.83;;;14.37;;
56307;SDS011;42217;50.422;7.210;2022-12-15T10:36:51;21.53;;;15.47;;
56307;SDS011;42217;50.422;7.210;2022-12-15T10:39:18;29.70;;;17.33;;
56307;SDS011;42217;50.422;7.210;2022-12-15T10:41:45;22.33;;;15.40;;
56307;SDS011;42217;50.422;7.210;2022-12-15T10:44:35;17.07;;;13.43;;
56307;SDS011;42217;50.422;7.210;2022-12-15T10:47:09;24.73;;;18.00;;
56307;SDS011;42217;50.422;7.210;2022-12-15T10:49:43;29.23;;;20.60;;
56307;SDS011;42217;50.422;7.210;2022-12-15T10:52:42;25.83;;;19.80;;
56307;SDS011;42217;50.422;7.210;2022-12-15T10:55:01;32.53;;;23.17;;
56307;SDS011;42217;50.422;7.210;2022-12-15T10:57:56;23.33;;;19.47;;
56307;SDS011;42217;50.422;7.210;2022-12-15T11:00:24;27.70;;;21.13;;
56307;SDS011;42217;50.422;7.210;2022-12-15T11:02:52;33.20;;;22.53;;
56307;SDS011;42217;50.422;7.210;2022-12-15T11:05:18;27.87;;;19.53;;
56307;SDS011;42217;50.422;7.210;2022-12-15T11:07:45;20.80;;;18.67;;
56307;SDS011;42217;50.422;7.210;2022-12-15T11:21:06;19.53;;;14.13;;
56307;SDS011;42217;50.422;7.210;2022-12-15T11:30:09;22.87;;;19.53;;
56307;SDS011;42217;50.422;7.210;2022-12-15T11:32:45;23.03;;;16.80;;
56307;SDS011;42217;50.422;7.210;2022-12-15T11:35:14;15.43;;;12.13;;
56307;SDS011;42217;50.422;7.210;2022-12-15T11:37:43;22.40;;;14.73;;
56307;SDS011;42217;50.422;7.210;2022-12-15T11:48:48;29.97;;;15.37;;
56307;SDS011;42217;50.422;7.210;2022-12-15T11:54:30;33.53;;;18.33;;
56307;SDS011;42217;50.422;7.210;2022-12-15T12:00:03;28.33;;;17.27;;
56307;SDS011;42217;50.422;7.210;2022-12-15T12:13:34;33.33;;;20.00;;
56307;SDS011;42217;50.422;7.210;2022-12-15T12:16:11;21.63;;;16.53;;
56307;SDS011;42217;50.422;7.210;2022-12-15T12:21:37;29.80;;;15.43;;
56307;SDS011;42217;50.422;7.210;2022-12-15T12:26:56;40.10;;;17.87;;
56307;SDS011;42217;50.422;7.210;2022-12-15T12:29:39;31.88;;;16.98;;
56307;SDS011;42217;50.422;7.210;2022-12-15T12:32:17;31.03;;;17.27;;
56307;SDS011;42217;50.422;7.210;2022-12-15T12:35:03;26.20;;;17.10;;
56307;SDS011;42217;50.422;7.210;2022-12-15T12:37:41;29.10;;;18.57;;
56307;SDS011;42217;50.422;7.210;2022-12-15T12:45:20;32.80;;;19.53;;
56307;SDS011;42217;50.422;7.210;2022-12-15T12:48:14;32.53;;;18.27;;
56307;SDS011;42217;50.422;7.210;2022-12-15T12:50:48;30.17;;;18.40;;
56307;SDS011;42217;50.422;7.210;2022-12-15T12:53:25;69.17;;;26.50;;
56307;SDS011;42217;50.422;7.210;2022-12-15T12:55:58;34.43;;;18.70;;
56307;SDS011;42217;50.422;7.210;2022-12-15T12:58:31;33.67;;;20.30;;
56307;SDS011;42217;50.422;7.210;2022-12-15T13:01:16;29.23;;;18.80;;
56307;SDS011;42217;50.422;7.210;2022-12-15T13:04:03;26.93;;;15.77;;
56307;SDS011;42217;50.422;7.210;2022-12-15T13:09:03;22.50;;;17.10;;
56307;SDS011;42217;50.422;7.210;2022-12-15T13:16:48;37.73;;;16.30;;
56307;SDS011;42217;50.422;7.210;2022-12-15T13:22:38;32.30;;;14.10;;
56307;SDS011;42217;50.422;7.210;2022-12-15T13:28:00;21.07;;;13.47;;
56307;SDS011;42217;50.422;7.210;2022-12-15T13:41:40;26.77;;;17.00;;
56307;SDS011;42217;50.422;7.210;2022-12-15T13:47:04;31.03;;;16.50;;
56307;SDS011;42217;50.422;7.210;2022-12-15T13:52:27;34.00;;;16.63;;
56307;SDS011;42217;50.422;7.210;2022-12-15T13:54:57;27.63;;;17.53;;
56307;SDS011;42217;50.422;7.210;2022-12-15T13:57:26;29.08;;;15.68;;
56307;SDS011;42217;50.422;7.210;2022-12-15T13:59:56;36.07;;;15.83;;
56307;SDS011;42217;50.422;7.210;2022-12-15T14:05:17;34.63;;;17.23;;
56307;SDS011;42217;50.422;7.210;2022-12-15T14:10:19;31.77;;;17.10;;
56307;SDS011;42217;50.422;7.210;2022-12-15T14:18:38;37.93;;;22.30;;
56307;SDS011;42217;50.422;7.210;2022-12-15T14:21:07;56.63;;;22.00;;
56307;SDS011;42217;50.422;7.210;2022-12-15T14:23:51;34.80;;;16.57;;
56307;SDS011;42217;50.422;7.210;2022-12-15T14:26:17;34.03;;;18.77;;
56307;SDS011;42217;50.422;7.210;2022-12-15T14:28:43;35.93;;;20.80;;
56307;SDS011;42217;50.422;7.210;2022-12-15T14:31:24;33.13;;;17.87;;
56307;SDS011;42217;50.422;7.210;2022-12-15T14:34:10;40.43;;;20.73;;
56307;SDS011;42217;50.422;7.210;2022-12-15T14:36:44;26.97;;;19.53;;
56307;SDS011;42217;50.422;7.210;2022-12-15T14:39:19;31.77;;;17.93;;
56307;SDS011;42217;50.422;7.210;2022-12-15T14:41:52;29.80;;;18.93;;
56307;SDS011;42217;50.422;7.210;2022-12-15T14:46:52;29.33;;;15.70;;
56307;SDS011;42217;50.422;7.210;2022-12-15T14:49:19;29.50;;;18.87;;
56307;SDS011;42217;50.422;7.210;2022-12-15T14:52:01;22.37;;;14.13;;
56307;SDS011;42217;50.422;7.210;2022-12-15T14:54:36;32.45;;;19.90;;
56307;SDS011;42217;50.422;7.210;2022-12-15T14:57:14;25.03;;;17.63;;
56307;SDS011;42217;50.422;7.210;2022-12-15T14:59:44;29.40;;;17.30;;
56307;SDS011;42217;50.422;7.210;2022-12-15T15:02:15;15.13;;;13.07;;
56307;SDS011;42217;50.422;7.210;2022-12-15T15:05:02;27.90;;;16.57;;
56307;SDS011;42217;50.422;7.210;2022-12-15T15:07:31;16.30;;;13.57;;
56307;SDS011;42217;50.422;7.210;2022-12-15T15:09:59;27.73;;;14.80;;
56307;SDS011;42217;50.422;7.210;2022-12-15T15:12:44;19.70;;;12.03;;
56307;SDS011;42217;50.422;7.210;2022-12-15T15:15:16;15.10;;;8.67;;
56307;SDS011;42217;50.422;7.210;2022-12-15T15:33:08;10.67;;;9.67;;
56307;SDS011;42217;50.422;7.210;2022-12-15T15:35:35;12.57;;;8.00;;
56307;SDS011;42217;50.422;7.210;2022-12-15T15:38:03;15.07;;;13.43;;
56307;SDS011;42217;50.422;7.210;2022-12-15T15:41:14;11.50;;;10.37;;
56307;SDS011;42217;50.422;7.210;2022-12-15T15:43:52;16.37;;;14.50;;
56307;SDS011;42217;50.422;7.210;2022-12-15T15:46:22;15.00;;;13.40;;
56307;SDS011;42217;50.422;7.210;2022-12-15T15:49:10;16.50;;;13.63;;
56307;SDS011;42217;50.422;7.210;2022-12-15T15:51:40;16.83;;;12.83;;
56307;SDS011;42217;50.422;7.210;2022-12-15T15:54:06;14.47;;;11.77;;
56307;SDS011;42217;50.422;7.210;2022-12-15T15:56:37;13.23;;;11.87;;
56307;SDS011;42217;50.422;7.210;2022-12-15T16:01:58;17.77;;;12.50;;
56307;SDS011;42217;50.422;7.210;2022-12-15T16:04:24;13.40;;;8.40;;
56307;SDS011;42217;50.422;7.210;2022-12-15T16:06:50;14.63;;;8.80;;
56307;SDS011;42217;50.422;7.210;2022-12-15T16:09:17;16.60;;;9.97;;
56307;SDS011;42217;50.422;7.210;2022-12-15T16:11:44;8.77;;;6.93;;
56307;SDS011;42217;50.422;7.210;2022-12-15T16:14:11;14.97;;;7.77;;
56307;SDS011;42217;50.422;7.210;2022-12-15T16:16:38;10.27;;;8.00;;
56307;SDS011;42217;50.422;7.210;2022-12-15T16:19:04;10.87;;;9.97;;
56307;SDS011;42217;50.422;7.210;2022-12-15T16:21:29;7.90;;;6.23;;
56307;SDS011;42217;50.422;7.210;2022-12-15T16:23:55;9.40;;;8.57;;
56307;SDS011;42217;50.422;7.210;2022-12-15T16:26:29;22.97;;;8.83;;
56307;SDS011;42217;50.422;7.210;2022-12-15T16:28:56;11.07;;;9.90;;
56307;SDS011;42217;50.422;7.210;2022-12-15T16:31:32;8.07;;;7.37;;
56307;SDS011;42217;50.422;7.210;2022-12-15T16:34:02;8.17;;;6.80;;
56307;SDS011;42217;50.422;7.210;2022-12-15T16:36:28;10.03;;;6.83;;
56307;SDS011;42217;50.422;7.210;2022-12-15T16:38:56;10.17;;;8.73;;
56307;SDS011;42217;50.422;7.210;2022-12-15T16:41:22;9.07;;;7.83;;
56307;SDS011;42217;50.422;7.210;2022-12-15T16:43:51;7.17;;;6.57;;
56307;SDS011;42217;50.422;7.210;2022-12-15T16:46:17;8.03;;;6.43;;
56307;SDS011;42217;50.422;7.210;2022-12-15T16:48:44;6.30;;;5.90;;
56307;SDS011;42217;50.422;7.210;2022-12-15T16:51:18;8.20;;;6.30;;
56307;SDS011;42217;50.422;7.210;2022-12-15T16:53:58;12.13;;;8.30;;
56307;SDS011;42217;50.422;7.210;2022-12-15T16:56:23;9.87;;;8.77;;
56307;SDS011;42217;50.422;7.210;2022-12-15T16:58:49;8.67;;;6.63;;
56307;SDS011;42217;50.422;7.210;2022-12-15T17:01:15;14.53;;;9.77;;
56307;SDS011;42217;50.422;7.210;2022-12-15T17:03:40;15.07;;;11.83;;
56307;SDS011;42217;50.422;7.210;2022-12-15T17:06:07;10.97;;;9.67;;
56307;SDS011;42217;50.422;7.210;2022-12-15T17:11:04;12.27;;;8.33;;
56307;SDS011;42217;50.422;7.210;2022-12-15T17:13:31;13.83;;;9.10;;
56307;SDS011;42217;50.422;7.210;2022-12-15T17:16:02;20.03;;;11.40;;
56307;SDS011;42217;50.422;7.210;2022-12-15T17:18:28;26.20;;;14.03;;
56307;SDS011;42217;50.422;7.210;2022-12-15T17:20:55;12.70;;;10.97;;
56307;SDS011;42217;50.422;7.210;2022-12-15T17:23:30;13.63;;;9.93;;
56307;SDS011;42217;50.422;7.210;2022-12-15T17:25:57;10.67;;;9.80;;
56307;SDS011;42217;50.422;7.210;2022-12-15T17:28:27;10.37;;;9.37;;
56307;SDS011;42217;50.422;7.210;2022-12-15T17:30:55;12.27;;;9.85;;
56307;SDS011;42217;50.422;7.210;2022-12-15T17:33:28;8.43;;;6.47;;
56307;SDS011;42217;50.422;7.210;2022-12-15T17:35:58;11.17;;;10.17;;
56307;SDS011;42217;50.422;7.210;2022-12-15T17:38:26;8.60;;;7.87;;
56307;SDS011;42217;50.422;7.210;2022-12-15T17:40:52;8.77;;;8.03;;
56307;SDS011;42217;50.422;7.210;2022-12-15T17:43:23;12.63;;;11.33;;
56307;SDS011;42217;50.422;7.210;2022-12-15T17:45:50;8.63;;;7.93;;
56307;SDS011;42217;50.422;7.210;2022-12-15T17:48:19;11.33;;;9.37;;